CYBU

Nipawin Airport

Nipawin, Saskatchewan, Canada
METAR CYBU 242100Z AUTO 19007KT 160V300 9SM BKN032 08/02 A2987 RMK SLP132
Observed Flight Rules
Sep-24 @ 21:00 UTC (29 minutes ago) Visual Flight Rules
Wind Visibility Clouds
190° at 7 knots 9 miles
  • Broken at 3,200' AGL
Temperatures Readings
Current 8°C / 46°F
Dewpoint 2°C / 36°F
Humidity 66%
Altimeter 29.87" Hg
Pressure 1013.2 hPa
Elevation 374
METAR CYBU 242100Z AUTO 19007KT 160V300 9SM BKN032 08/02 A2987 RMK SLP132
Observed Flight Rules
Sep-24 @ 21:00 UTC
(29 minutes ago)
VFR
Wind Visibility
190° at 7 knots 9 miles
Clouds
  • Broken at 3,200' AGL
Temperature Dewpoint
8°C / 46°F 2°C / 36°F
Humidity Altimeter Pressure
66% 29.87" Hg 1013.2 hPa